createdAt,value
2022-09-15T00:01:02.912Z,97.47
2022-09-15T00:03:30.282Z,97.59
2022-09-15T00:05:57.344Z,98.23
2022-09-15T00:08:25.487Z,98.15
2022-09-15T00:10:55.704Z,98.16
2022-09-15T00:13:23.747Z,97.80
2022-09-15T00:15:51.013Z,98.08
2022-09-15T00:18:18.246Z,98.30
2022-09-15T00:20:46.120Z,98.63
2022-09-15T00:23:15.568Z,98.31
2022-09-15T00:25:48.934Z,98.60
2022-09-15T00:28:17.889Z,99.08
2022-09-15T00:30:47.503Z,98.88
2022-09-15T00:33:16.513Z,98.78
2022-09-15T00:35:45.437Z,98.67
2022-09-15T00:38:14.102Z,98.85
2022-09-15T00:40:56.039Z,98.95
2022-09-15T00:43:45.256Z,99.51
2022-09-15T00:46:14.003Z,99.69
2022-09-15T00:48:52.963Z,99.59
2022-09-15T00:51:32.715Z,99.00
2022-09-15T00:54:02.080Z,98.90
2022-09-15T00:56:33.369Z,99.26
2022-09-15T00:59:10.067Z,99.46
2022-09-15T01:01:37.250Z,99.50
2022-09-15T01:04:04.659Z,99.44
2022-09-15T01:06:41.329Z,99.89
2022-09-15T01:09:16.934Z,99.81
2022-09-15T01:11:44.877Z,100.00
2022-09-15T01:14:12.434Z,99.83
2022-09-15T01:16:51.714Z,99.85
2022-09-15T01:19:27.965Z,99.70
2022-09-15T01:22:17.356Z,99.63
2022-09-15T01:25:04.718Z,99.92
2022-09-15T01:27:50.289Z,99.70
2022-09-15T01:30:24.697Z,99.78
2022-09-15T01:33:10.641Z,100.00
2022-09-15T01:36:00.044Z,100.00
2022-09-15T01:39:01.117Z,100.00
2022-09-15T01:41:35.460Z,100.00
2022-09-15T01:44:10.547Z,100.00
2022-09-15T01:46:44.995Z,100.00
2022-09-15T01:49:15.705Z,100.00
2022-09-15T01:51:43.571Z,100.00
2022-09-15T01:54:12.295Z,100.00
2022-09-15T01:56:40.977Z,100.00
2022-09-15T01:59:09.588Z,100.00
2022-09-15T02:01:51.903Z,100.00
2022-09-15T02:04:47.066Z,100.00
2022-09-15T02:07:51.090Z,100.00
2022-09-15T02:10:27.111Z,100.00
2022-09-15T02:13:20.240Z,100.00
2022-09-15T02:15:54.240Z,100.00
2022-09-15T02:18:35.426Z,100.00
2022-09-15T02:21:33.717Z,100.00
2022-09-15T02:24:07.943Z,100.00
2022-09-15T02:26:38.594Z,100.00
2022-09-15T02:29:10.001Z,100.00
2022-09-15T02:31:39.863Z,100.00
2022-09-15T02:34:20.741Z,100.00
2022-09-15T02:36:50.868Z,100.00
2022-09-15T02:39:20.574Z,100.00
2022-09-15T02:41:48.893Z,100.00
2022-09-15T02:44:15.991Z,100.00
2022-09-15T02:46:43.848Z,100.00
2022-09-15T02:49:11.059Z,100.00
2022-09-15T02:51:38.164Z,100.00
2022-09-15T02:54:05.380Z,100.00
2022-09-15T02:56:32.472Z,100.00
2022-09-15T02:58:59.708Z,100.00
2022-09-15T03:01:34.781Z,100.00
2022-09-15T03:04:03.470Z,100.00
2022-09-15T03:06:34.692Z,100.00
2022-09-15T03:09:07.456Z,100.00
2022-09-15T03:11:35.013Z,100.00
2022-09-15T03:14:06.016Z,100.00
2022-09-15T03:16:35.206Z,100.00
2022-09-15T03:19:03.176Z,100.00
2022-09-15T03:21:30.637Z,100.00
2022-09-15T03:23:58.889Z,100.00
2022-09-15T03:26:26.435Z,100.00
2022-09-15T03:28:53.665Z,100.00
2022-09-15T03:31:20.838Z,100.00
2022-09-15T03:33:48.551Z,100.00
2022-09-15T03:36:15.873Z,100.00
2022-09-15T03:38:42.926Z,100.00
2022-09-15T03:41:12.022Z,100.00
2022-09-15T03:43:39.739Z,100.00
2022-09-15T03:46:08.266Z,100.00
2022-09-15T03:48:36.763Z,100.00
2022-09-15T03:51:04.742Z,100.00
2022-09-15T03:53:33.565Z,100.00
2022-09-15T03:56:22.134Z,100.00
2022-09-15T03:58:49.671Z,100.00
2022-09-15T04:01:20.260Z,100.00
2022-09-15T04:04:06.888Z,100.00
2022-09-15T04:06:34.195Z,100.00
2022-09-15T04:09:01.357Z,100.00
2022-09-15T04:11:28.948Z,100.00
2022-09-15T04:13:56.184Z,100.00
2022-09-15T04:16:24.904Z,100.00
2022-09-15T04:18:55.481Z,100.00
2022-09-15T04:21:25.605Z,100.00
2022-09-15T04:23:53.313Z,100.00
2022-09-15T04:26:27.505Z,100.00
2022-09-15T04:28:54.694Z,100.00
2022-09-15T04:31:21.814Z,100.00
2022-09-15T04:33:53.749Z,100.00
2022-09-15T04:36:24.428Z,100.00
2022-09-15T04:38:52.062Z,100.00
2022-09-15T04:41:20.992Z,100.00
2022-09-15T04:43:48.518Z,100.00
2022-09-15T04:46:16.882Z,100.00
2022-09-15T04:48:46.036Z,100.00
2022-09-15T04:51:17.190Z,100.00
2022-09-15T04:53:45.122Z,100.00
2022-09-15T04:56:15.324Z,100.00
2022-09-15T04:58:47.864Z,100.00
2022-09-15T05:01:27.495Z,100.00
2022-09-15T05:03:55.638Z,100.00
2022-09-15T05:06:26.941Z,100.00
2022-09-15T05:08:57.241Z,100.00
2022-09-15T05:11:25.566Z,100.00
2022-09-15T05:13:53.225Z,100.00
2022-09-15T05:16:26.765Z,100.00
2022-09-15T05:19:00.284Z,100.00
2022-09-15T05:21:27.852Z,100.00
2022-09-15T05:23:55.602Z,100.00
2022-09-15T05:26:27.621Z,100.00
2022-09-15T05:28:56.646Z,100.00
2022-09-15T05:31:27.119Z,100.00
2022-09-15T05:33:54.904Z,100.00
2022-09-15T05:36:25.539Z,100.00
2022-09-15T05:38:53.447Z,100.00
2022-09-15T05:41:20.944Z,100.00
2022-09-15T05:43:49.209Z,100.00
2022-09-15T05:46:18.102Z,100.00
2022-09-15T05:48:45.976Z,100.00
2022-09-15T05:51:13.680Z,100.00
2022-09-15T05:53:41.396Z,100.00
2022-09-15T05:56:12.153Z,100.00
2022-09-15T05:58:40.759Z,100.00
2022-09-15T06:01:22.973Z,100.00
2022-09-15T06:03:51.375Z,100.00
2022-09-15T06:06:18.981Z,100.00
2022-09-15T06:08:52.852Z,100.00
2022-09-15T06:11:29.690Z,100.00
2022-09-15T06:14:00.391Z,100.00
2022-09-15T06:16:27.450Z,100.00
2022-09-15T06:18:54.736Z,100.00
2022-09-15T06:21:25.727Z,100.00
2022-09-15T06:23:57.469Z,100.00
2022-09-15T06:26:25.762Z,100.00
2022-09-15T06:28:59.402Z,100.00
2022-09-15T06:31:28.835Z,99.54
2022-09-15T06:33:57.809Z,98.77
2022-09-15T06:36:27.728Z,98.90
2022-09-15T06:38:55.776Z,98.34
2022-09-15T06:41:23.469Z,98.51
2022-09-15T06:43:50.883Z,98.58
2022-09-15T06:46:21.545Z,98.44
2022-09-15T06:48:49.314Z,98.86
2022-09-15T06:51:18.768Z,98.90
2022-09-15T06:53:46.895Z,98.79
2022-09-15T06:56:20.373Z,98.78
2022-09-15T06:58:51.456Z,98.87
2022-09-15T07:01:28.403Z,98.41
2022-09-15T07:03:57.444Z,98.24
2022-09-15T07:06:27.804Z,97.59
2022-09-15T07:08:54.979Z,96.78
2022-09-15T07:11:22.594Z,97.37
2022-09-15T07:13:49.896Z,97.68
2022-09-15T07:16:19.071Z,98.07
2022-09-15T07:18:47.211Z,97.93
2022-09-15T07:21:17.135Z,97.46
2022-09-15T07:23:44.801Z,97.65
2022-09-15T07:26:17.736Z,97.59
2022-09-15T07:28:47.172Z,97.37
2022-09-15T07:31:17.146Z,97.50
2022-09-15T07:33:44.691Z,97.75
2022-09-15T07:36:12.177Z,97.74
2022-09-15T07:38:43.012Z,97.69
2022-09-15T07:41:11.440Z,97.47
2022-09-15T07:43:38.864Z,97.32
2022-09-15T07:46:07.065Z,97.12
2022-09-15T07:48:34.257Z,96.30
2022-09-15T07:51:01.634Z,95.45
2022-09-15T07:53:29.558Z,95.92
2022-09-15T07:55:57.248Z,95.90
2022-09-15T07:58:25.111Z,95.53
2022-09-15T08:00:52.556Z,95.25
2022-09-15T08:03:19.787Z,94.83
2022-09-15T08:05:46.920Z,94.97
2022-09-15T08:08:13.976Z,94.61
2022-09-15T08:10:41.828Z,94.33
2022-09-15T08:13:09.036Z,94.57
2022-09-15T08:15:39.180Z,94.76
2022-09-15T08:18:06.584Z,94.53
2022-09-15T08:20:33.957Z,94.42
2022-09-15T08:23:01.032Z,94.28
2022-09-15T08:25:28.234Z,94.04
2022-09-15T08:27:56.462Z,93.73
2022-09-15T08:30:23.866Z,93.53
2022-09-15T08:32:51.304Z,93.05
2022-09-15T08:35:19.542Z,92.48
2022-09-15T08:37:47.380Z,92.33
2022-09-15T08:40:22.363Z,91.29
2022-09-15T08:42:55.533Z,91.11
2022-09-15T08:45:35.077Z,90.74
2022-09-15T08:48:05.247Z,89.98
2022-09-15T08:50:38.961Z,90.29
2022-09-15T08:53:13.349Z,90.38
2022-09-15T08:55:48.505Z,90.28
2022-09-15T08:58:30.276Z,90.44
2022-09-15T09:01:18.878Z,90.05
2022-09-15T09:04:27.494Z,90.25
2022-09-15T09:07:03.548Z,90.64
2022-09-15T09:09:45.951Z,89.79
2022-09-15T09:12:41.273Z,89.81
2022-09-15T09:15:24.233Z,89.84
2022-09-15T09:18:09.669Z,89.01
2022-09-15T09:20:55.500Z,88.47
2022-09-15T09:23:27.842Z,88.27
2022-09-15T09:25:57.467Z,88.54
2022-09-15T09:28:42.463Z,87.43
2022-09-15T09:31:18.409Z,88.37
2022-09-15T09:34:11.960Z,87.50
2022-09-15T09:36:39.135Z,87.45
2022-09-15T09:39:11.857Z,87.83
2022-09-15T09:41:39.982Z,87.53
2022-09-15T09:44:11.183Z,87.83
2022-09-15T09:46:38.844Z,87.73
2022-09-15T09:49:16.921Z,87.37
2022-09-15T09:51:55.409Z,87.97
2022-09-15T09:54:27.311Z,87.16
2022-09-15T09:56:57.041Z,87.51
2022-09-15T09:59:36.315Z,88.52
2022-09-15T10:02:12.233Z,88.36
2022-09-15T10:04:41.128Z,87.94
2022-09-15T10:07:08.952Z,88.36
2022-09-15T10:09:37.523Z,87.70
2022-09-15T10:12:06.055Z,87.76
2022-09-15T10:14:33.091Z,87.43
2022-09-15T10:17:04.646Z,86.24
2022-09-15T10:19:36.714Z,85.25
2022-09-15T10:22:04.961Z,85.89
2022-09-15T10:24:39.507Z,84.92
2022-09-15T10:27:17.726Z,83.45
2022-09-15T10:29:45.414Z,84.46
2022-09-15T10:32:25.379Z,83.53
2022-09-15T10:35:14.294Z,84.09
2022-09-15T10:38:12.939Z,84.30
2022-09-15T10:41:10.786Z,83.16
2022-09-15T10:43:56.643Z,83.71
2022-09-15T10:46:48.143Z,84.64
2022-09-15T10:49:41.407Z,83.29
2022-09-15T10:52:20.067Z,82.47
2022-09-15T10:54:47.099Z,82.74
2022-09-15T10:57:29.346Z,83.08
2022-09-15T11:00:21.068Z,82.84
2022-09-15T11:03:25.241Z,82.42
2022-09-15T11:06:03.247Z,82.67
2022-09-15T11:08:59.673Z,83.23
2022-09-15T11:11:49.498Z,83.03
2022-09-15T11:14:44.487Z,83.07
2022-09-15T11:17:45.451Z,82.58
2022-09-15T11:20:25.413Z,81.36
2022-09-15T11:23:06.104Z,82.18
2022-09-15T11:25:45.284Z,79.36
2022-09-15T11:28:19.435Z,81.12
2022-09-15T11:30:53.466Z,80.81
2022-09-15T11:33:27.478Z,81.89
2022-09-15T11:36:07.697Z,83.46
2022-09-15T11:38:49.091Z,83.83
2022-09-15T11:41:56.399Z,84.63
2022-09-15T11:44:49.734Z,84.97
2022-09-15T11:47:35.055Z,84.68
2022-09-15T11:50:10.987Z,84.94
2022-09-15T11:52:53.260Z,85.42
2022-09-15T11:55:35.644Z,86.11
2022-09-15T11:58:21.031Z,85.75
2022-09-15T12:01:01.678Z,86.11
2022-09-15T12:03:31.590Z,85.22
2022-09-15T12:06:07.822Z,85.24
2022-09-15T12:08:50.961Z,85.90
2022-09-15T12:11:22.662Z,84.92
2022-09-15T12:13:50.865Z,85.15
2022-09-15T12:16:18.887Z,84.96
2022-09-15T12:18:57.341Z,83.82
2022-09-15T12:21:35.402Z,83.68
2022-09-15T12:24:19.938Z,84.46
2022-09-15T12:26:47.674Z,84.35
2022-09-15T12:29:26.969Z,84.33
2022-09-15T12:32:27.689Z,84.88
2022-09-15T12:34:55.361Z,85.19
2022-09-15T12:37:24.475Z,83.50
2022-09-15T12:39:53.295Z,83.13
2022-09-15T12:42:26.984Z,82.28
2022-09-15T12:44:58.728Z,81.78
2022-09-15T12:47:38.523Z,83.01
2022-09-15T12:50:29.601Z,82.97
2022-09-15T12:53:01.998Z,82.51
2022-09-15T12:55:37.368Z,82.67
2022-09-15T12:58:10.808Z,80.70
2022-09-15T13:00:42.491Z,81.46
2022-09-15T13:03:55.297Z,81.61
2022-09-15T13:06:34.291Z,81.33
2022-09-15T13:09:01.576Z,81.06
2022-09-15T13:11:40.993Z,80.64
2022-09-15T13:14:41.152Z,80.59
2022-09-15T13:17:19.404Z,80.99
2022-09-15T13:19:49.293Z,80.54
2022-09-15T13:22:31.603Z,79.44
2022-09-15T13:25:15.884Z,79.89
2022-09-15T13:27:53.995Z,79.97
2022-09-15T13:30:24.526Z,80.76
2022-09-15T13:32:57.792Z,80.59
2022-09-15T13:35:33.829Z,80.80
2022-09-15T13:38:27.647Z,81.11
2022-09-15T13:41:16.568Z,80.95
2022-09-15T13:44:01.677Z,80.63
2022-09-15T13:46:34.678Z,79.77
2022-09-15T13:49:11.911Z,80.90
2022-09-15T13:51:44.456Z,80.48
2022-09-15T13:54:19.229Z,79.24
2022-09-15T13:56:53.198Z,78.57
2022-09-15T13:59:28.522Z,79.59
2022-09-15T14:01:57.067Z,79.62
2022-09-15T14:04:28.058Z,80.41
2022-09-15T14:07:00.974Z,81.01
2022-09-15T14:09:35.482Z,81.02
2022-09-15T14:12:09.183Z,80.61
2022-09-15T14:14:44.841Z,80.19
2022-09-15T14:17:20.968Z,80.28
2022-09-15T14:19:50.283Z,80.28
2022-09-15T14:22:27.913Z,80.72
2022-09-15T14:24:57.432Z,80.73
2022-09-15T14:27:34.253Z,80.33
2022-09-15T14:30:09.172Z,80.37
2022-09-15T14:32:40.282Z,80.99
2022-09-15T14:35:09.794Z,80.97
2022-09-15T14:37:37.230Z,80.41
2022-09-15T14:40:38.033Z,80.15
2022-09-15T14:43:39.303Z,80.62
2022-09-15T14:46:13.963Z,80.99
2022-09-15T14:48:41.227Z,81.13
2022-09-15T14:51:25.543Z,81.32
2022-09-15T14:53:57.079Z,81.29
2022-09-15T14:56:31.179Z,81.54
2022-09-15T14:59:10.775Z,81.85
2022-09-15T15:01:49.022Z,81.65
2022-09-15T15:04:42.417Z,81.55
2022-09-15T15:07:39.577Z,80.99
2022-09-15T15:10:07.300Z,80.86
2022-09-15T15:12:34.742Z,81.11
2022-09-15T15:15:03.403Z,81.22
2022-09-15T15:17:38.810Z,81.15
2022-09-15T15:20:06.236Z,81.30
2022-09-15T15:22:33.770Z,81.64
2022-09-15T15:25:01.299Z,81.74
2022-09-15T15:27:34.387Z,81.89
2022-09-15T15:30:26.639Z,82.15
2022-09-15T15:32:54.907Z,81.90
2022-09-15T15:35:23.120Z,81.93
2022-09-15T15:38:05.070Z,82.14
2022-09-15T15:40:33.713Z,82.38
2022-09-15T15:43:19.728Z,82.43
2022-09-15T15:46:01.331Z,82.76
2022-09-15T15:48:35.210Z,82.66
2022-09-15T15:51:04.936Z,82.55
2022-09-15T15:53:32.163Z,83.43
2022-09-15T15:56:00.891Z,83.59
2022-09-15T15:58:28.432Z,82.72
2022-09-15T16:00:56.873Z,81.71
2022-09-15T16:03:25.682Z,81.32
2022-09-15T16:05:57.241Z,81.42
2022-09-15T16:08:33.585Z,80.21
2022-09-15T16:11:02.593Z,80.13
2022-09-15T16:13:30.741Z,79.53
2022-09-15T16:16:00.364Z,79.86
2022-09-15T16:18:29.264Z,80.28
2022-09-15T16:20:56.423Z,80.19
2022-09-15T16:23:24.080Z,80.26
2022-09-15T16:26:07.804Z,80.63
2022-09-15T16:28:35.117Z,80.75
2022-09-15T16:31:02.270Z,80.78
2022-09-15T16:33:30.486Z,80.71
2022-09-15T16:36:07.045Z,80.64
2022-09-15T16:38:35.982Z,80.60
2022-09-15T16:41:04.540Z,80.96
2022-09-15T16:43:32.103Z,80.83
2022-09-15T16:45:59.265Z,81.27
2022-09-15T16:48:27.279Z,81.47
2022-09-15T16:51:23.437Z,81.94
2022-09-15T16:53:42.245Z,82.13
2022-09-15T16:56:12.912Z,82.64
2022-09-15T16:58:40.443Z,82.96
2022-09-15T17:01:13.106Z,83.22
2022-09-15T17:03:43.356Z,83.33
2022-09-15T17:06:14.510Z,84.50
2022-09-15T17:08:42.197Z,85.19
2022-09-15T17:11:16.680Z,85.34
2022-09-15T17:13:45.052Z,85.05
2022-09-15T17:16:17.649Z,84.89
2022-09-15T17:18:46.875Z,85.21
2022-09-15T17:21:16.448Z,84.99
2022-09-15T17:23:46.813Z,85.20
2022-09-15T17:26:18.120Z,85.37
2022-09-15T17:28:45.496Z,85.24
2022-09-15T17:31:17.348Z,85.35
2022-09-15T17:33:45.728Z,85.02
2022-09-15T17:36:13.637Z,84.79
2022-09-15T17:38:41.511Z,84.09
2022-09-15T17:41:17.107Z,84.09
2022-09-15T17:43:45.478Z,83.87
2022-09-15T17:46:13.149Z,84.00
2022-09-15T17:48:40.847Z,84.72
2022-09-15T17:51:14.521Z,84.97
2022-09-15T17:53:42.907Z,84.29
2022-09-15T17:56:10.551Z,84.51
2022-09-15T17:58:41.889Z,84.89
2022-09-15T18:01:13.431Z,84.51
2022-09-15T18:03:44.377Z,84.68
2022-09-15T18:06:12.076Z,84.96
2022-09-15T18:08:39.540Z,84.74
2022-09-15T18:11:07.304Z,84.66
2022-09-15T18:13:34.886Z,85.25
2022-09-15T18:16:10.980Z,85.19
2022-09-15T18:18:40.048Z,85.16
2022-09-15T18:21:09.881Z,84.96
2022-09-15T18:23:38.177Z,85.24
2022-09-15T18:26:05.837Z,84.74
2022-09-15T18:28:33.505Z,84.75
2022-09-15T18:31:01.377Z,85.21
2022-09-15T18:33:29.043Z,84.95
2022-09-15T18:35:59.065Z,85.04
2022-09-15T18:38:26.763Z,85.07
2022-09-15T18:40:56.849Z,85.64
2022-09-15T18:43:26.666Z,85.75
2022-09-15T18:46:02.154Z,85.48
2022-09-15T18:48:29.479Z,85.79
2022-09-15T18:50:57.048Z,85.26
2022-09-15T18:53:24.896Z,85.83
2022-09-15T18:55:52.172Z,85.45
2022-09-15T18:58:19.591Z,85.26
2022-09-15T19:00:47.190Z,85.81
2022-09-15T19:03:14.705Z,86.07
2022-09-15T19:05:42.065Z,85.23
2022-09-15T19:08:11.009Z,85.22
2022-09-15T19:10:40.900Z,85.38
2022-09-15T19:13:10.027Z,85.88
2022-09-15T19:15:39.563Z,85.24
2022-09-15T19:18:07.297Z,84.84
2022-09-15T19:20:34.514Z,85.15
2022-09-15T19:23:01.736Z,84.84
2022-09-15T19:25:29.051Z,86.20
2022-09-15T19:27:56.293Z,85.88
2022-09-15T19:30:23.504Z,85.48
2022-09-15T19:32:50.685Z,85.73
2022-09-15T19:35:17.968Z,85.06
2022-09-15T19:37:45.295Z,85.13
2022-09-15T19:40:14.730Z,85.67
2022-09-15T19:42:44.098Z,84.74
2022-09-15T19:45:13.079Z,85.43
2022-09-15T19:47:40.629Z,85.75
2022-09-15T19:50:11.276Z,85.53
2022-09-15T19:52:38.525Z,85.68
2022-09-15T19:55:08.125Z,85.64
2022-09-15T19:57:38.873Z,84.49
2022-09-15T20:00:06.301Z,85.57
2022-09-15T20:02:33.569Z,85.27
2022-09-15T20:05:00.716Z,85.37
2022-09-15T20:07:27.792Z,85.93
2022-09-15T20:09:54.927Z,85.65
2022-09-15T20:12:22.050Z,85.86
2022-09-15T20:14:49.188Z,86.76
2022-09-15T20:17:16.550Z,86.98
2022-09-15T20:19:43.728Z,86.43
2022-09-15T20:22:10.945Z,86.46
2022-09-15T20:24:38.159Z,85.28
2022-09-15T20:27:05.421Z,86.61
2022-09-15T20:29:32.539Z,86.36
2022-09-15T20:31:59.611Z,86.82
2022-09-15T20:34:26.703Z,86.68
2022-09-15T20:36:53.860Z,86.91
2022-09-15T20:39:22.390Z,86.88
2022-09-15T20:41:49.641Z,87.53
2022-09-15T20:44:16.843Z,87.83
2022-09-15T20:46:44.126Z,88.50
2022-09-15T20:49:11.506Z,88.56
2022-09-15T20:51:38.689Z,89.90
2022-09-15T20:54:06.223Z,89.75
2022-09-15T20:56:35.228Z,89.12
2022-09-15T20:59:04.431Z,88.68
2022-09-15T21:01:37.235Z,88.68
2022-09-15T21:04:06.929Z,89.03
2022-09-15T21:06:34.716Z,90.04
2022-09-15T21:09:02.145Z,90.93
2022-09-15T21:11:30.203Z,91.22
2022-09-15T21:13:58.777Z,90.39
2022-09-15T21:16:28.417Z,90.14
2022-09-15T21:18:57.835Z,90.67
2022-09-15T21:21:27.367Z,90.31
2022-09-15T21:23:56.453Z,91.54
2022-09-15T21:26:26.055Z,92.18
2022-09-15T21:28:55.436Z,92.73
2022-09-15T21:31:26.232Z,92.24
2022-09-15T21:33:54.007Z,92.18
2022-09-15T21:36:29.807Z,92.26
2022-09-15T21:38:58.755Z,92.01
2022-09-15T21:41:30.042Z,90.97
2022-09-15T21:43:59.166Z,91.28
2022-09-15T21:46:29.249Z,91.53
2022-09-15T21:48:58.524Z,90.90
2022-09-15T21:51:27.713Z,90.57
2022-09-15T21:53:57.093Z,90.55
2022-09-15T21:56:25.800Z,90.61
2022-09-15T21:58:53.065Z,91.62
2022-09-15T22:01:22.802Z,90.81
2022-09-15T22:03:51.621Z,91.59
2022-09-15T22:06:21.505Z,91.10
2022-09-15T22:08:48.956Z,90.53
2022-09-15T22:11:16.163Z,91.14
2022-09-15T22:13:44.746Z,91.07
2022-09-15T22:16:20.516Z,91.50
2022-09-15T22:18:47.875Z,91.80
2022-09-15T22:21:20.935Z,90.86
2022-09-15T22:23:49.631Z,91.76
2022-09-15T22:26:21.723Z,91.63
2022-09-15T22:28:49.112Z,91.53
2022-09-15T22:31:18.069Z,91.20
2022-09-15T22:33:46.000Z,90.95
2022-09-15T22:36:19.302Z,90.70
2022-09-15T22:38:46.578Z,90.41
2022-09-15T22:41:16.862Z,90.44
2022-09-15T22:43:45.770Z,89.71
2022-09-15T22:46:12.996Z,89.65
2022-09-15T22:48:43.505Z,89.88
2022-09-15T22:51:11.111Z,90.40
2022-09-15T22:53:38.277Z,90.63
2022-09-15T22:56:14.478Z,90.86
2022-09-15T22:58:43.951Z,90.30
2022-09-15T23:01:18.899Z,90.41
2022-09-15T23:03:57.964Z,90.91
2022-09-15T23:06:27.234Z,90.45
2022-09-15T23:08:57.761Z,90.38
2022-09-15T23:11:27.116Z,90.28
2022-09-15T23:13:55.158Z,90.36
2022-09-15T23:16:24.289Z,90.36
2022-09-15T23:18:52.898Z,90.75
2022-09-15T23:21:20.705Z,90.81
2022-09-15T23:23:49.286Z,91.34
2022-09-15T23:26:19.023Z,90.52
2022-09-15T23:28:46.318Z,90.39
2022-09-15T23:31:14.136Z,90.82
2022-09-15T23:33:41.980Z,90.64
2022-09-15T23:36:12.033Z,90.66
2022-09-15T23:38:40.750Z,90.01
2022-09-15T23:41:08.851Z,90.04
2022-09-15T23:43:35.994Z,90.65
2022-09-15T23:46:03.968Z,90.97
2022-09-15T23:48:31.757Z,90.37
2022-09-15T23:50:59.298Z,90.86
2022-09-15T23:53:26.457Z,91.94
2022-09-15T23:55:53.722Z,93.42
2022-09-15T23:58:20.890Z,93.86
